Time;durP1;ratioP1;P1;durP2;ratioP2;P2;SDS_P1;SDS_P2;PMS_P1;PMS_P2;Temp;Humidity;BMP_temperature;BMP_pressure;BME280_temperature;BME280_humidity;BME280_pressure;Samples;Min_cycle;Max_cycle;Signal;HPM_P1;HPM_P2
2021/01/07 00:01:11;;;;;;;46.05;24.45;;;;;;;6.64;93.01;96942.34;5044321;28;20037;-59
2021/01/07 00:03:39;;;;;;;40.55;20.58;;;;;;;6.12;93.16;96870.81;5045199;28;20120;-60
2021/01/07 00:06:12;;;;;;;33.63;18.92;;;;;;;6.55;93.40;96938.13;5044682;28;20056;-59
2021/01/07 00:08:37;;;;;;;60.10;29.98;;;;;;;6.39;94.16;96929.78;5027178;28;20527;-59
2021/01/07 00:11:04;;;;;;;61.72;28.73;;;;;;;6.03;94.37;96880.34;5045051;28;20040;-60
2021/01/07 00:13:30;;;;;;;52.03;26.63;;;;;;;6.45;94.23;96928.41;5045022;28;20029;-60
2021/01/07 00:15:56;;;;;;;46.85;23.70;;;;;;;6.54;92.83;96920.84;5044620;28;20487;-62
2021/01/07 00:18:21;;;;;;;47.40;19.38;;;;;;;6.05;92.32;96864.31;5044620;28;20295;-60
2021/01/07 00:20:47;;;;;;;31.52;14.25;;;;;;;6.29;92.70;96913.78;5026301;28;20147;-59
2021/01/07 00:23:12;;;;;;;37.55;17.35;;;;;;;6.43;93.88;96933.47;5026775;28;20040;-60
2021/01/07 00:25:45;;;;;;;56.53;25.50;;;;;;;6.34;93.78;96916.28;5043995;28;20037;-60
2021/01/07 00:28:10;;;;;;;42.13;20.10;;;;;;;6.50;94.49;96936.44;5045035;28;20039;-61
2021/01/07 00:30:36;;;;;;;53.63;23.80;;;;;;;6.48;94.16;96938.72;5043982;28;20829;-60
2021/01/07 00:33:01;;;;;;;62.80;25.83;;;;;;;5.61;94.02;96782.78;5044527;28;20025;-59
2021/01/07 00:35:26;;;;;;;49.25;22.75;;;;;;;6.62;94.12;96944.69;5044204;28;20037;-59
2021/01/07 00:37:52;;;;;;;36.95;18.90;;;;;;;6.65;93.26;96943.97;5044608;28;20106;-61
2021/01/07 00:40:18;;;;;;;32.13;15.65;;;;;;;6.64;93.33;96942.34;5043666;28;20573;-60
2021/01/07 00:42:43;;;;;;;26.42;13.38;;;;;;;6.04;94.06;96848.94;5026256;28;20171;-60
2021/01/07 00:45:09;;;;;;;23.02;11.55;;;;;;;6.66;93.91;96923.56;5025676;28;20514;-59
2021/01/07 00:47:34;;;;;;;28.52;14.15;;;;;;;6.53;92.82;96896.44;5044293;28;20045;-59
2021/01/07 00:50:00;;;;;;;32.00;17.35;;;;;;;6.48;93.71;96916.69;5044408;28;20029;-61
2021/01/07 00:52:25;;;;;;;45.53;23.27;;;;;;;6.70;93.25;96929.94;5043645;28;20112;-60
2021/01/07 00:54:50;;;;;;;60.63;29.30;;;;;;;6.16;92.63;96851.69;5044505;28;20451;-59
2021/01/07 00:57:16;;;;;;;43.17;22.40;;;;;;;6.70;92.55;96912.66;5041965;28;20072;-62
2021/01/07 00:59:42;;;;;;;35.95;19.52;;;;;;;6.67;93.01;96894.88;5044453;28;20836;-60
2021/01/07 01:02:07;;;;;;;44.25;21.90;;;;;;;6.66;93.04;96907.03;5043898;28;20033;-59
2021/01/07 01:04:32;;;;;;;45.92;21.95;;;;;;;6.52;93.15;96879.09;5044334;28;20036;-60
2021/01/07 01:06:58;;;;;;;64.97;28.17;;;;;;;6.24;94.00;96837.00;5043514;28;20427;-59
2021/01/07 01:09:23;;;;;;;57.33;27.42;;;;;;;6.49;93.76;96895.50;5046982;28;20037;-59
2021/01/07 01:11:49;;;;;;;36.72;17.90;;;;;;;6.39;95.16;96907.78;5046297;28;20029;-59
2021/01/07 01:14:19;;;;;;;31.58;15.40;;;;;;;6.53;94.12;96899.97;5046611;28;20161;-60
2021/01/07 01:16:49;;;;;;;41.20;18.02;;;;;;;6.59;93.93;96890.31;5029469;28;20033;-60
2021/01/07 01:19:16;;;;;;;41.60;18.00;;;;;;;6.56;93.63;96892.97;5029818;28;20041;-59
2021/01/07 01:21:42;;;;;;;28.08;12.55;;;;;;;6.48;93.27;96889.19;5047401;28;20033;-61
2021/01/07 01:24:08;;;;;;;25.40;12.05;;;;;;;5.74;93.85;96759.63;5046605;28;20041;-62
2021/01/07 01:26:34;;;;;;;37.08;17.50;;;;;;;6.50;93.32;96886.91;5029588;28;20052;-58
2021/01/07 01:28:59;;;;;;;38.08;19.02;;;;;;;5.98;93.81;96778.84;5048089;28;20068;-59
2021/01/07 01:31:25;;;;;;;23.90;12.90;;;;;;;6.53;93.17;96868.91;5045870;28;20033;-61
2021/01/07 01:33:50;;;;;;;27.42;12.45;;;;;;;6.35;93.01;96835.38;5047779;28;20024;-60
2021/01/07 01:36:26;;;;;;;34.88;14.85;;;;;;;6.54;92.54;96854.81;5047574;28;20565;-60
2021/01/07 01:38:52;;;;;;;35.60;15.63;;;;;;;6.57;92.54;96865.13;5046302;28;20151;-60
2021/01/07 01:41:17;;;;;;;38.05;17.38;;;;;;;6.56;93.09;96858.00;5047315;28;20549;-61
2021/01/07 01:43:43;;;;;;;31.77;15.50;;;;;;;6.59;92.56;96851.78;5047672;28;20029;-59
2021/01/07 01:46:08;;;;;;;28.70;13.98;;;;;;;6.03;91.94;96773.94;5062799;28;20052;-59
2021/01/07 01:48:34;;;;;;;26.35;12.70;;;;;;;6.62;92.22;96829.09;5067553;28;20036;-60
2021/01/07 01:51:00;;;;;;;24.35;12.85;;;;;;;6.55;92.75;96823.38;5067304;28;20059;-60
2021/01/07 01:53:25;;;;;;;23.38;12.20;;;;;;;6.56;92.83;96830.47;5049393;28;20032;-62
2021/01/07 01:55:51;;;;;;;21.52;11.32;;;;;;;6.29;92.80;96803.78;5066997;28;20033;-60
2021/01/07 01:58:17;;;;;;;20.90;10.15;;;;;;;6.35;92.43;96834.56;5049353;28;20045;-59
2021/01/07 02:00:42;;;;;;;30.50;13.45;;;;;;;6.25;93.35;96824.84;5048959;28;20106;-61
2021/01/07 02:03:12;;;;;;;28.80;13.80;;;;;;;5.80;94.38;96769.25;5065690;28;20105;-60
2021/01/07 02:05:40;;;;;;;28.45;15.82;;;;;;;6.21;94.67;96829.47;5066842;28;20115;-60
2021/01/07 02:08:08;;;;;;;28.35;15.80;;;;;;;6.15;95.53;96830.81;5067130;28;20047;-59
2021/01/07 02:10:34;;;;;;;42.03;22.95;;;;;;;6.21;95.32;96812.94;5065141;28;20025;-61
2021/01/07 02:13:03;;;;;;;43.20;21.90;;;;;;;6.16;96.16;96810.44;5065467;28;20176;-60
2021/01/07 02:15:28;;;;;;;47.58;23.90;;;;;;;5.48;95.68;96734.50;5066702;28;20542;-60
2021/01/07 02:17:56;;;;;;;59.00;30.00;;;;;;;6.05;95.81;96798.31;5066942;28;20039;-60
2021/01/07 02:20:26;;;;;;;46.63;23.17;;;;;;;6.16;95.46;96815.94;5047343;28;20035;-59
2021/01/07 02:22:53;;;;;;;40.50;23.10;;;;;;;5.38;98.09;96751.44;5066643;28;20556;-60
2021/01/07 02:25:18;;;;;;;44.28;23.45;;;;;;;5.86;97.24;96803.63;5066432;28;20039;-59
2021/01/07 02:27:44;;;;;;;47.78;24.30;;;;;;;5.88;97.09;96804.09;5048699;28;20032;-60
2021/01/07 02:30:10;;;;;;;43.85;24.20;;;;;;;5.77;97.35;96775.44;5066525;28;20033;-60
2021/01/07 02:32:35;;;;;;;48.22;25.45;;;;;;;5.68;97.15;96777.50;5066899;28;20046;-61
2021/01/07 02:35:00;;;;;;;38.45;21.13;;;;;;;5.54;98.05;96777.06;5050151;28;20495;-60
2021/01/07 02:37:26;;;;;;;36.20;18.95;;;;;;;5.65;98.29;96791.94;5026256;28;20113;-60
2021/01/07 02:39:51;;;;;;;38.85;20.17;;;;;;;5.43;97.52;96737.47;5025351;28;20033;-60
2021/01/07 02:42:17;;;;;;;46.85;20.75;;;;;;;5.74;96.92;96792.59;5026138;28;20112;-62
2021/01/07 02:44:42;;;;;;;42.88;21.05;;;;;;;5.54;96.55;96788.03;5011198;28;20502;-60
2021/01/07 02:47:07;;;;;;;33.90;18.52;;;;;;;5.76;95.94;96806.81;5047923;28;20045;-59
2021/01/07 02:49:33;;;;;;;30.77;18.13;;;;;;;5.62;95.49;96785.19;5043095;28;20117;-60
2021/01/07 02:51:58;;;;;;;26.00;14.38;;;;;;;5.53;96.65;96780.97;5026323;28;20045;-60
2021/01/07 02:54:24;;;;;;;27.88;14.25;;;;;;;4.57;96.39;96612.38;5026534;28;20129;-59
2021/01/07 02:56:49;;;;;;;38.40;20.10;;;;;;;5.70;97.22;96805.44;5025894;28;20034;-60
2021/01/07 02:59:15;;;;;;;36.45;18.50;;;;;;;5.69;97.30;96792.84;5026551;28;20034;-61
2021/01/07 03:01:40;;;;;;;29.38;17.75;;;;;;;5.60;96.52;96800.41;5007879;28;20591;-60
2021/01/07 03:04:06;;;;;;;31.33;15.48;;;;;;;5.46;96.06;96799.94;5026388;28;20412;-61
2021/01/07 03:06:31;;;;;;;31.98;15.35;;;;;;;5.30;97.41;96804.50;5025886;28;20086;-60
2021/01/07 03:08:57;;;;;;;33.75;15.95;;;;;;;5.02;97.74;96754.16;5025837;28;20026;-59
2021/01/07 03:11:22;;;;;;;32.42;16.27;;;;;;;5.30;97.78;96799.84;5007584;28;20029;-61
2021/01/07 03:13:48;;;;;;;23.35;12.27;;;;;;;5.40;97.24;96793.09;5026108;28;20032;-60
2021/01/07 03:16:13;;;;;;;20.65;11.63;;;;;;;4.73;98.01;96724.97;5025292;28;20412;-60
2021/01/07 03:18:38;;;;;;;21.48;11.15;;;;;;;5.10;99.07;96780.72;5026064;28;20087;-59
2021/01/07 03:21:04;;;;;;;19.30;11.45;;;;;;;4.54;98.49;96667.09;5025750;28;20037;-60
2021/01/07 03:23:30;;;;;;;22.52;11.85;;;;;;;5.03;99.90;96756.56;5025957;28;20420;-59
2021/01/07 03:25:55;;;;;;;23.10;11.48;;;;;;;4.66;100.00;96741.97;5025197;28;20752;-60
2021/01/07 03:28:20;;;;;;;32.30;15.50;;;;;;;4.82;100.00;96733.09;5025983;28;20553;-60
2021/01/07 03:30:46;;;;;;;20.60;11.75;;;;;;;3.98;100.00;96632.28;5025623;28;20500;-59
2021/01/07 03:33:11;;;;;;;26.45;12.88;;;;;;;4.76;100.00;96754.47;5007981;28;20549;-58
2021/01/07 03:35:37;;;;;;;26.23;12.57;;;;;;;4.83;100.00;96753.91;5007171;28;20614;-59
2021/01/07 03:38:02;;;;;;;19.95;12.00;;;;;;;3.62;100.00;96756.16;5025639;28;20427;-59
2021/01/07 03:40:28;;;;;;;23.75;12.15;;;;;;;4.94;100.00;96741.34;5024735;28;20041;-60
2021/01/07 03:42:53;;;;;;;25.98;12.98;;;;;;;5.08;100.00;96744.56;5025773;28;20048;-60
2021/01/07 03:45:19;;;;;;;20.95;12.60;;;;;;;5.13;100.00;96749.81;5035614;28;20411;-59
2021/01/07 03:47:44;;;;;;;21.38;12.07;;;;;;;4.88;98.93;96745.47;5065294;28;20049;-61
2021/01/07 03:50:10;;;;;;;244.10;71.82;;;;;;;5.17;98.16;96750.75;5065174;28;20032;-59
2021/01/07 03:52:36;;;;;;;47.85;21.88;;;;;;;5.25;97.72;96769.84;5065300;28;20032;-58
2021/01/07 03:55:01;;;;;;;35.47;16.60;;;;;;;5.08;98.81;96741.81;5065267;28;20457;-58
2021/01/07 03:57:27;;;;;;;81.65;32.30;;;;;;;5.17;99.10;96772.72;5064877;28;20056;-60
2021/01/07 03:59:52;;;;;;;69.97;26.85;;;;;;;4.55;99.28;96669.50;5064781;28;20056;-59
2021/01/07 04:02:17;;;;;;;83.22;34.25;;;;;;;4.65;100.00;96685.53;5064538;28;20482;-59
2021/01/07 04:04:43;;;;;;;66.05;26.45;;;;;;;5.19;100.00;96775.91;5065046;28;20034;-61
2021/01/07 04:07:08;;;;;;;51.85;24.48;;;;;;;5.07;100.00;96756.69;5064552;28;20032;-59
2021/01/07 04:09:34;;;;;;;40.55;20.88;;;;;;;5.18;100.00;96779.81;5064891;28;20082;-59
2021/01/07 04:11:59;;;;;;;35.33;20.88;;;;;;;5.26;100.00;96765.16;5064236;28;20487;-59
2021/01/07 04:14:24;;;;;;;32.13;19.55;;;;;;;5.28;100.00;96762.88;5064739;28;20120;-60
2021/01/07 04:16:50;;;;;;;28.90;17.55;;;;;;;4.46;100.00;96627.69;5064324;28;20032;-60
2021/01/07 04:19:15;;;;;;;30.08;16.83;;;;;;;5.34;100.00;96756.00;5064688;28;20028;-59
2021/01/07 04:21:47;;;;;;;27.75;14.95;;;;;;;5.29;99.84;96756.25;5064146;28;20067;-60
2021/01/07 04:24:16;;;;;;;26.02;14.15;;;;;;;5.32;99.64;96763.78;5064697;28;20032;-60
2021/01/07 04:26:42;;;;;;;34.53;14.15;;;;;;;5.30;99.56;96777.06;5063966;28;20029;-60
2021/01/07 04:29:08;;;;;;;26.65;13.50;;;;;;;5.45;98.13;96768.16;5046535;28;20045;-59
2021/01/07 04:31:34;;;;;;;25.27;13.18;;;;;;;5.14;97.09;96707.53;5045899;28;20066;-59
2021/01/07 04:33:59;;;;;;;25.10;14.02;;;;;;;4.92;97.73;96678.56;5036173;28;20041;-59
2021/01/07 04:36:25;;;;;;;26.77;15.00;;;;;;;5.31;98.93;96759.44;5025755;28;20040;-60
2021/01/07 04:38:50;;;;;;;37.83;18.95;;;;;;;5.00;98.41;96712.53;5044345;28;20037;-58
2021/01/07 04:41:16;;;;;;;40.50;19.88;;;;;;;5.44;98.83;96777.50;5043976;28;20363;-58
2021/01/07 04:43:41;;;;;;;37.25;20.10;;;;;;;5.47;99.21;96763.91;5025852;28;20033;-59
2021/01/07 04:46:07;;;;;;;40.30;20.40;;;;;;;5.55;99.44;96784.94;5053894;28;20114;-59
2021/01/07 04:48:36;;;;;;;41.15;19.33;;;;;;;5.17;98.74;96706.84;5046128;28;20037;-59
2021/01/07 04:51:03;;;;;;;39.92;20.52;;;;;;;5.76;97.56;96768.34;5064144;28;20098;-60
2021/01/07 04:53:28;;;;;;;37.38;20.15;;;;;;;5.27;96.24;96674.22;5064571;28;20029;-59
2021/01/07 04:55:54;;;;;;;29.35;17.08;;;;;;;5.88;96.80;96760.13;5064124;28;20043;-61
2021/01/07 04:58:19;;;;;;;30.38;15.48;;;;;;;5.20;96.97;96703.41;5064062;28;20040;-60
2021/01/07 05:00:45;;;;;;;29.75;16.33;;;;;;;5.72;96.74;96761.94;5046042;28;20040;-59
2021/01/07 05:03:19;;;;;;;50.72;22.73;;;;;;;5.58;97.13;96745.03;5064631;28;20430;-60
2021/01/07 05:05:48;;;;;;;49.47;24.50;;;;;;;5.76;97.16;96762.84;5064185;28;20495;-60
2021/01/07 05:08:17;;;;;;;38.20;19.77;;;;;;;5.70;97.37;96775.22;5064124;28;20113;-62
2021/01/07 05:10:52;;;;;;;176.95;77.72;;;;;;;5.71;97.41;96776.81;5064119;28;20098;-60
2021/01/07 05:13:19;;;;;;;95.68;47.25;;;;;;;5.25;97.43;96714.16;5064410;28;20040;-61
2021/01/07 05:15:45;;;;;;;73.63;38.40;;;;;;;5.65;97.42;96773.50;5063514;28;20036;-59
2021/01/07 05:18:11;;;;;;;82.38;40.85;;;;;;;5.72;97.32;96772.94;5045846;28;20039;-61
2021/01/07 05:20:37;;;;;;;69.82;33.08;;;;;;;5.53;97.41;96764.47;5063368;28;20043;-59
2021/01/07 05:23:02;;;;;;;117.72;73.25;;;;;;;5.55;97.83;96756.66;5063999;28;20033;-60
2021/01/07 05:25:31;;;;;;;91.90;54.42;;;;;;;5.50;97.73;96748.69;5063580;28;20070;-60
2021/01/07 05:28:06;;;;;;;85.07;49.30;;;;;;;5.43;98.63;96759.44;5063965;28;20037;-59
2021/01/07 05:30:33;;;;;;;60.03;36.33;;;;;;;5.16;98.63;96788.38;5045047;28;20037;-60
2021/01/07 05:33:03;;;;;;;66.35;34.47;;;;;;;4.68;98.64;96646.44;5045700;28;20032;-61
2021/01/07 05:35:29;;;;;;;91.00;46.17;;;;;;;5.40;98.93;96765.63;5063904;28;20119;-60
2021/01/07 05:37:58;;;;;;;91.72;45.00;;;;;;;5.38;99.73;96787.13;5063843;28;20178;-58
2021/01/07 05:40:24;;;;;;;91.45;43.28;;;;;;;5.26;99.64;96754.19;5045181;28;20089;-59
2021/01/07 05:42:49;;;;;;;91.20;46.50;;;;;;;5.40;99.37;96793.09;5064003;28;20452;-59
2021/01/07 05:45:17;;;;;;;108.20;56.22;;;;;;;5.43;98.50;96781.41;5059721;28;20029;-60
2021/01/07 05:47:45;;;;;;;93.13;49.50;;;;;;;5.39;99.16;96786.00;5043617;28;20105;-59
2021/01/07 05:50:12;;;;;;;97.05;51.60;;;;;;;5.00;99.02;96731.75;5043791;28;20037;-60
2021/01/07 05:52:45;;;;;;;97.60;51.95;;;;;;;5.31;98.58;96789.66;5026028;28;20067;-60
2021/01/07 05:55:12;;;;;;;;;;;;;;;5.27;98.64;96784.03;5044930;28;20041;-60
2021/01/07 05:57:38;;;;;;;154.52;78.60;;;;;;;4.91;99.07;96753.00;5046400;28;19920;-60
2021/01/07 06:00:23;;;;;;;171.98;84.43;;;;;;;4.09;100.00;96628.78;5047185;28;20041;-60
2021/01/07 06:02:55;;;;;;;95.47;47.78;;;;;;;4.91;100.00;96794.16;5047456;28;20116;-60
2021/01/07 06:05:21;;;;;;;80.80;39.92;;;;;;;4.96;100.00;96777.50;5028458;28;20049;-59
2021/01/07 06:07:47;;;;;;;59.45;31.15;;;;;;;4.98;100.00;96780.69;5029324;28;20102;-59
2021/01/07 06:10:15;;;;;;;55.55;29.35;;;;;;;4.78;100.00;96784.28;5028095;28;20033;-60
2021/01/07 06:12:40;;;;;;;46.50;24.63;;;;;;;4.14;100.00;96738.16;5042607;28;20029;-61
2021/01/07 06:15:10;;;;;;;53.28;27.38;;;;;;;4.65;100.00;96777.97;5043904;28;20033;-61
2021/01/07 06:17:37;;;;;;;58.88;27.00;;;;;;;4.65;100.00;96789.75;5046833;28;20040;-62
2021/01/07 06:20:12;;;;;;;54.78;28.15;;;;;;;4.28;100.00;96735.94;5046828;28;20113;-58
2021/01/07 06:22:40;;;;;;;59.47;29.00;;;;;;;4.55;100.00;96784.69;5046443;28;20047;-58
2021/01/07 06:25:11;;;;;;;58.30;28.52;;;;;;;4.62;100.00;96779.47;5045884;28;20037;-61
2021/01/07 06:27:40;;;;;;;58.30;29.40;;;;;;;4.60;100.00;96776.25;5045178;28;20472;-62
2021/01/07 06:30:05;;;;;;;55.03;27.05;;;;;;;4.62;100.00;96763.00;5046731;28;20076;-61
2021/01/07 06:32:31;;;;;;;50.97;26.05;;;;;;;4.55;100.00;96768.25;5040778;28;20546;-59
2021/01/07 06:34:58;;;;;;;50.00;25.33;;;;;;;4.68;100.00;96778.13;5034658;28;20041;-59
2021/01/07 06:37:35;;;;;;;44.88;24.85;;;;;;;4.73;100.00;96781.78;5045903;28;20032;-62
2021/01/07 06:40:06;;;;;;;49.50;28.25;;;;;;;4.68;100.00;96792.97;5046467;28;20503;-63
2021/01/07 06:42:36;;;;;;;72.35;40.25;;;;;;;4.71;100.00;96804.06;5046319;28;20033;-61
2021/01/07 06:45:04;;;;;;;70.00;36.83;;;;;;;4.82;100.00;96804.44;5046865;28;20040;-62
2021/01/07 06:47:31;;;;;;;78.63;42.33;;;;;;;4.29;100.00;96720.28;5065840;28;20545;-63
2021/01/07 06:49:58;;;;;;;68.97;36.65;;;;;;;4.83;100.00;96806.03;5066758;28;20094;-63
2021/01/07 06:52:25;;;;;;;68.93;40.25;;;;;;;4.84;100.00;96818.63;5059831;28;20029;-62
2021/01/07 06:54:54;;;;;;;55.25;31.27;;;;;;;4.74;100.00;96824.53;5046385;28;20480;-61
2021/01/07 06:57:20;;;;;;;69.10;34.90;;;;;;;4.99;100.00;96842.66;5045835;28;20144;-64
2021/01/07 07:00:05;;;;;;;110.28;55.10;;;;;;;5.10;100.00;96846.59;5046321;28;20565;-62
2021/01/07 07:02:31;;;;;;;179.30;80.55;;;;;;;5.18;100.00;96868.47;5028242;28;20088;-62
2021/01/07 07:05:05;;;;;;;208.05;97.72;;;;;;;4.82;100.00;96809.94;5045333;28;20056;-63
2021/01/07 07:07:30;;;;;;;94.70;45.40;;;;;;;5.49;98.04;96867.94;5045510;28;20044;-62
2021/01/07 07:10:18;;;;;;;49.72;25.55;;;;;;;5.71;96.28;96864.72;5027523;28;20037;-61
2021/01/07 07:12:48;;;;;;;109.63;48.13;;;;;;;5.81;96.18;96858.78;5045934;28;20082;-62
2021/01/07 07:15:23;;;;;;;115.40;52.00;;;;;;;5.89;96.42;96838.66;5045418;28;20082;-63
2021/01/07 07:17:53;;;;;;;101.80;46.15;;;;;;;6.01;94.36;96819.41;5045686;28;20036;-63
2021/01/07 07:20:24;;;;;;;118.13;55.03;;;;;;;6.10;94.14;96831.88;5027136;28;20132;-64
2021/01/07 07:22:50;;;;;;;67.30;35.53;;;;;;;6.08;93.75;96830.63;5027523;28;20037;-63
2021/01/07 07:25:22;;;;;;;65.78;37.45;;;;;;;6.06;94.34;96816.41;5045053;28;20072;-63
2021/01/07 07:28:02;;;;;;;79.15;44.03;;;;;;;6.23;94.41;96829.88;5045496;28;20466;-64
2021/01/07 07:30:32;;;;;;;49.25;26.00;;;;;;;5.99;93.79;96799.72;5045307;28;20114;-64
2021/01/07 07:32:59;;;;;;;56.53;27.13;;;;;;;5.90;93.73;96801.78;5045659;28;20706;-62
2021/01/07 07:35:27;;;;;;;64.68;31.05;;;;;;;5.60;93.48;96775.69;5043617;28;20048;-62
2021/01/07 07:37:54;;;;;;;67.10;35.58;;;;;;;6.02;94.54;96840.25;5043698;28;20045;-62
2021/01/07 07:40:28;;;;;;;85.85;45.08;;;;;;;6.38;94.95;96842.94;5010244;28;20494;-61
2021/01/07 07:42:56;;;;;;;87.95;41.97;;;;;;;6.63;92.94;96852.69;5025517;28;20025;-62
2021/01/07 07:45:26;;;;;;;62.00;33.10;;;;;;;6.83;92.55;96835.19;5025320;28;20993;-59
2021/01/07 07:47:52;;;;;;;47.67;28.50;;;;;;;6.90;91.36;96809.81;5023920;28;20064;-62
2021/01/07 07:50:21;;;;;;;92.32;49.13;;;;;;;7.16;91.36;96832.94;5044593;28;20444;-61
2021/01/07 07:52:47;;;;;;;32.97;18.80;;;;;;;7.28;91.20;96823.81;5025929;28;20423;-62
2021/01/07 07:55:13;;;;;;;29.08;17.55;;;;;;;7.55;91.25;96818.22;5044732;28;20119;-61
2021/01/07 07:57:49;;;;;;;36.03;15.68;;;;;;;7.73;90.50;96813.94;5045159;28;20029;-62
2021/01/07 08:00:18;;;;;;;29.15;16.42;;;;;;;7.92;89.88;96820.69;5043024;28;20067;-63
2021/01/07 08:02:45;;;;;;;51.38;34.35;;;;;;;7.80;89.01;96773.91;5039049;28;20114;-64
2021/01/07 08:05:25;;;;;;;40.22;25.17;;;;;;;8.07;88.87;96786.72;5044319;28;20036;-63
2021/01/07 08:07:51;;;;;;;31.73;20.63;;;;;;;7.66;88.94;96686.16;5043068;28;20062;-63
2021/01/07 08:10:17;;;;;;;31.80;18.08;;;;;;;8.41;88.83;96795.00;5025349;28;20068;-59
2021/01/07 08:12:42;;;;;;;26.20;14.80;;;;;;;8.93;87.99;96819.34;5043543;28;20041;-59
2021/01/07 08:15:08;;;;;;;45.67;22.15;;;;;;;9.08;86.84;96812.94;5044483;28;20040;-60
2021/01/07 08:17:33;;;;;;;42.88;17.77;;;;;;;8.83;85.51;96726.03;5042931;28;20041;-63
2021/01/07 08:19:59;;;;;;;26.25;15.30;;;;;;;9.40;85.81;96799.69;5025624;28;20045;-60
2021/01/07 08:22:28;;;;;;;30.00;16.20;;;;;;;9.69;84.68;96805.31;5044167;28;20040;-58
2021/01/07 08:24:59;;;;;;;22.67;12.20;;;;;;;9.82;83.88;96795.66;5025525;28;20479;-64
2021/01/07 08:27:28;;;;;;;17.67;10.73;;;;;;;9.92;84.05;96814.41;5044484;28;20113;-64
2021/01/07 08:29:58;;;;;;;22.23;11.38;;;;;;;10.11;83.28;96828.16;5025718;28;20087;-62
2021/01/07 08:32:38;;;;;;;25.02;13.02;;;;;;;10.38;83.07;96827.00;5025102;28;20033;-60
2021/01/07 08:35:09;;;;;;;26.83;14.35;;;;;;;10.92;81.01;96822.94;5042581;28;20852;-57
2021/01/07 08:37:34;;;;;;;39.45;18.98;;;;;;;11.33;79.05;96821.81;5044133;28;20043;-59
2021/01/07 08:40:07;;;;;;;27.27;16.27;;;;;;;11.82;76.71;96816.78;5044135;28;20526;-62
2021/01/07 08:42:35;;;;;;;23.23;14.25;;;;;;;12.09;75.51;96809.84;5044398;28;20035;-63
2021/01/07 08:45:01;;;;;;;18.77;11.38;;;;;;;12.30;73.69;96815.53;5043856;28;20055;-64
2021/01/07 08:47:27;;;;;;;17.63;10.25;;;;;;;12.15;74.21;96802.75;5034479;28;20057;-62
2021/01/07 08:50:09;;;;;;;18.17;10.80;;;;;;;10.01;73.58;96452.47;5024225;28;20052;-62
2021/01/07 08:52:56;;;;;;;23.58;13.23;;;;;;;12.00;74.26;96779.63;5032075;28;20037;-62
2021/01/07 08:55:45;;;;;;;19.42;11.10;;;;;;;12.04;74.33;96791.53;5043433;28;20048;-61
2021/01/07 08:58:18;;;;;;;18.55;11.43;;;;;;;11.80;74.74;96808.81;5043095;28;20086;-61
2021/01/07 09:00:47;;;;;;;19.08;10.80;;;;;;;10.08;75.85;96552.19;5024707;28;20041;-61
2021/01/07 09:03:12;;;;;;;18.83;10.65;;;;;;;11.85;74.94;96810.44;5042464;28;20143;-61
2021/01/07 09:05:38;;;;;;;17.75;10.70;;;;;;;11.34;75.13;96712.47;5023204;28;20095;-61
2021/01/07 09:08:11;;;;;;;17.55;10.40;;;;;;;9.76;75.60;96473.56;5024702;28;20155;-61
2021/01/07 09:10:37;;;;;;;14.57;8.95;;;;;;;11.76;75.67;96796.09;5042386;28;20041;-59
2021/01/07 09:13:20;;;;;;;11.93;9.23;;;;;;;11.18;80.02;96804.22;5042502;28;20060;-59
2021/01/07 09:15:45;;;;;;;15.47;9.27;;;;;;;11.60;77.82;96798.31;5045906;28;20418;-61
2021/01/07 09:18:11;;;;;;;16.63;9.57;;;;;;;11.71;76.60;96793.69;5055443;28;20039;-59
2021/01/07 09:20:36;;;;;;;17.65;11.02;;;;;;;11.59;77.58;96788.38;5061882;28;20075;-60
2021/01/07 09:23:07;;;;;;;17.08;11.55;;;;;;;11.23;79.00;96808.63;5062589;28;20028;-63
2021/01/07 09:25:34;;;;;;;22.58;12.68;;;;;;;11.17;78.87;96769.38;5044070;28;20068;-64
2021/01/07 09:28:00;;;;;;;20.38;12.68;;;;;;;10.88;81.72;96788.81;5062764;28;20576;-62
2021/01/07 09:30:26;;;;;;;18.92;12.68;;;;;;;10.63;81.13;96736.72;5029865;28;20076;-60
2021/01/07 09:32:52;;;;;;;23.10;14.52;;;;;;;10.93;81.60;96786.53;5046197;28;20033;-61
2021/01/07 09:35:18;;;;;;;21.02;12.02;;;;;;;11.23;80.00;96783.66;5046077;28;20067;-61
2021/01/07 09:37:44;;;;;;;33.97;20.75;;;;;;;11.14;79.18;96744.38;5045411;28;20032;-62
2021/01/07 09:40:10;;;;;;;18.50;11.18;;;;;;;11.28;77.52;96736.19;5045306;28;20128;-61
2021/01/07 09:42:36;;;;;;;16.08;10.98;;;;;;;11.66;77.07;96769.06;5041818;28;20029;-60
2021/01/07 09:45:04;;;;;;;20.00;10.93;;;;;;;11.75;77.54;96772.28;5045830;28;20166;-59
2021/01/07 09:47:29;;;;;;;21.30;14.50;;;;;;;11.55;77.72;96707.13;5045606;28;20053;-60
2021/01/07 09:49:58;;;;;;;27.75;18.13;;;;;;;12.01;77.57;96758.22;5045990;28;20458;-58
2021/01/07 09:52:24;;;;;;;20.35;13.35;;;;;;;11.63;76.01;96692.16;5023963;28;20488;-62
2021/01/07 09:54:49;;;;;;;21.75;13.77;;;;;;;12.07;75.59;96751.13;5025174;28;20105;-61
2021/01/07 09:57:15;;;;;;;25.45;15.45;;;;;;;12.19;75.51;96759.13;5024597;28;20120;-63
2021/01/07 09:59:40;;;;;;;25.08;14.30;;;;;;;11.41;75.27;96651.53;5029082;28;20051;-61
2021/01/07 10:02:10;;;;;;;30.35;15.48;;;;;;;11.88;74.91;96705.00;5045543;28;20071;-61
2021/01/07 10:04:36;;;;;;;22.48;14.88;;;;;;;12.17;74.80;96750.41;5045031;28;20524;-62
2021/01/07 10:07:04;;;;;;;20.95;13.82;;;;;;;11.26;77.44;96716.38;5043787;28;20067;-61
2021/01/07 10:09:29;;;;;;;23.92;12.70;;;;;;;11.71;77.57;96765.94;5045537;28;20033;-58
2021/01/07 10:11:57;;;;;;;23.50;10.95;;;;;;;11.59;78.07;96769.75;5044318;28;20021;-62
2021/01/07 10:14:24;;;;;;;23.50;12.23;;;;;;;11.40;79.33;96755.31;5045906;28;20407;-62
2021/01/07 10:16:57;;;;;;;16.08;10.65;;;;;;;10.78;82.80;96822.75;5043720;28;20365;-62
2021/01/07 10:19:28;;;;;;;65.75;24.40;;;;;;;10.51;83.74;96720.34;5026509;28;20037;-62
2021/01/07 10:22:14;;;;;;;27.52;14.80;;;;;;;10.28;85.34;96732.69;5044945;28;20040;-61
2021/01/07 10:24:47;;;;;;;27.92;15.63;;;;;;;10.60;85.34;96744.97;5045875;28;20128;-61
2021/01/07 10:27:18;;;;;;;28.50;13.90;;;;;;;10.55;85.48;96735.03;5044662;28;20033;-59
2021/01/07 10:29:45;;;;;;;20.50;12.60;;;;;;;9.49;88.61;96662.00;5026497;28;20037;-62
2021/01/07 10:32:18;;;;;;;19.15;12.70;;;;;;;9.56;89.74;96712.69;5044445;28;20044;-61
2021/01/07 10:34:48;;;;;;;26.50;13.98;;;;;;;9.57;91.09;96741.94;5044919;28;20598;-60
2021/01/07 10:37:17;;;;;;;26.08;15.60;;;;;;;9.43;91.83;96733.41;5043911;28;20058;-61
2021/01/07 10:39:43;;;;;;;28.70;16.10;;;;;;;9.34;92.91;96746.69;5044650;28;20040;-62
2021/01/07 10:42:10;;;;;;;24.08;15.18;;;;;;;9.34;93.21;96746.69;5025938;28;20438;-61
2021/01/07 10:44:37;;;;;;;19.77;14.40;;;;;;;9.42;92.36;96739.31;5026791;28;20545;-63
2021/01/07 10:47:06;;;;;;;21.92;14.85;;;;;;;9.53;91.93;96729.22;5044118;28;20094;-62
2021/01/07 10:49:33;;;;;;;24.27;15.00;;;;;;;9.68;91.19;96715.25;5026405;28;20134;-62
2021/01/07 10:52:04;;;;;;;25.90;15.27;;;;;;;10.04;89.88;96733.94;5026209;28;20424;-62
2021/01/07 10:54:51;;;;;;;22.50;14.55;;;;;;;10.25;89.30;96734.25;5044473;28;20079;-61
2021/01/07 10:57:35;;;;;;;25.58;15.38;;;;;;;10.32;88.29;96731.56;5044863;28;20048;-61
2021/01/07 11:00:22;;;;;;;26.75;15.75;;;;;;;7.99;86.01;96363.03;5046414;28;20040;-61
2021/01/07 11:03:06;;;;;;;37.35;20.38;;;;;;;10.77;84.93;96726.97;5045120;28;20040;-62
2021/01/07 11:05:41;;;;;;;23.98;15.73;;;;;;;10.93;83.91;96724.75;5036625;28;20041;-62
2021/01/07 11:08:22;;;;;;;27.00;15.80;;;;;;;11.02;83.92;96716.94;5046211;28;20275;-62
2021/01/07 11:10:53;;;;;;;23.58;15.27;;;;;;;11.22;81.90;96715.56;5026171;28;20155;-60
2021/01/07 11:13:24;;;;;;;31.58;19.65;;;;;;;11.31;82.39;96707.69;5025943;28;20037;-64
2021/01/07 11:15:57;;;;;;;42.75;24.65;;;;;;;11.39;83.08;96710.16;5039181;28;20552;-62
2021/01/07 11:18:42;;;;;;;48.92;25.25;;;;;;;11.52;82.45;96716.22;5044700;28;20107;-60
2021/01/07 11:21:13;;;;;;;68.78;37.65;;;;;;;11.60;81.22;96706.75;5036027;28;20118;-60
2021/01/07 11:23:39;;;;;;;30.00;22.77;;;;;;;10.75;80.57;96652.53;5045890;28;20033;-62
2021/01/07 11:26:05;;;;;;;14.57;9.70;;;;;;;10.65;82.99;96714.19;5035165;28;20518;-63